createdAt,value
2018-12-31T00:03:55.457Z,4.80
2018-12-31T00:08:56.586Z,5.67
2018-12-31T00:13:57.667Z,5.50
2018-12-31T00:18:58.782Z,5.00
2018-12-31T00:24:03.169Z,5.30
2018-12-31T00:29:04.256Z,4.80
2018-12-31T00:34:05.378Z,5.53
2018-12-31T00:39:06.575Z,4.90
2018-12-31T00:44:07.723Z,4.90
2018-12-31T00:49:08.900Z,3.97
2018-12-31T00:54:09.999Z,3.63
2018-12-31T00:59:11.117Z,3.50
2018-12-31T01:04:12.223Z,3.67
2018-12-31T01:09:13.352Z,3.57
2018-12-31T01:14:14.543Z,3.63
2018-12-31T01:19:15.648Z,2.93
2018-12-31T01:24:16.750Z,2.67
2018-12-31T01:29:17.838Z,3.07
2018-12-31T01:34:18.957Z,3.03
2018-12-31T01:39:20.096Z,2.73
2018-12-31T01:44:21.199Z,3.03
2018-12-31T01:49:22.292Z,3.10
2018-12-31T01:54:23.383Z,1.90
2018-12-31T01:59:24.487Z,2.00
2018-12-31T02:04:25.722Z,2.80
2018-12-31T02:09:26.842Z,1.90
2018-12-31T02:14:27.942Z,1.67
2018-12-31T02:19:29.043Z,1.67
2018-12-31T02:24:30.147Z,2.07
2018-12-31T02:29:31.254Z,2.00
2018-12-31T02:34:32.332Z,2.47
2018-12-31T02:39:33.427Z,2.23
2018-12-31T02:44:34.525Z,2.10
2018-12-31T02:49:35.619Z,1.83
2018-12-31T02:54:36.711Z,1.73
2018-12-31T02:59:37.810Z,1.83
2018-12-31T03:04:38.900Z,3.03
2018-12-31T03:09:40.023Z,2.30
2018-12-31T03:14:41.111Z,3.27
2018-12-31T03:19:42.226Z,2.80
2018-12-31T03:24:43.420Z,2.80
2018-12-31T03:29:44.614Z,2.30
2018-12-31T03:34:45.699Z,2.30
2018-12-31T03:39:46.801Z,2.40
2018-12-31T03:44:47.890Z,1.80
2018-12-31T03:49:48.983Z,1.60
2018-12-31T03:54:50.112Z,1.67
2018-12-31T03:59:51.229Z,1.67
2018-12-31T04:04:52.422Z,1.67
2018-12-31T04:09:53.531Z,1.60
2018-12-31T04:14:54.627Z,1.00
2018-12-31T04:19:55.713Z,1.10
2018-12-31T04:24:57.009Z,0.93
2018-12-31T04:29:58.103Z,1.00
2018-12-31T04:34:59.206Z,1.20
2018-12-31T04:40:00.333Z,1.27
2018-12-31T04:45:01.438Z,0.53
2018-12-31T04:50:03.231Z,0.70
2018-12-31T04:55:04.316Z,0.70
2018-12-31T05:00:06.603Z,1.13
2018-12-31T05:05:07.684Z,1.30
2018-12-31T05:10:08.810Z,1.97
2018-12-31T05:15:09.898Z,1.07
2018-12-31T05:20:10.991Z,1.53
2018-12-31T05:25:12.083Z,1.23
2018-12-31T05:30:13.178Z,1.57
2018-12-31T05:35:14.268Z,1.10
2018-12-31T05:40:15.363Z,1.50
2018-12-31T05:45:16.496Z,2.20
2018-12-31T05:50:17.585Z,2.00
2018-12-31T05:55:18.683Z,1.80
2018-12-31T06:00:19.854Z,2.00
2018-12-31T06:05:21.063Z,2.70
2018-12-31T06:10:22.187Z,2.87
2018-12-31T06:15:23.284Z,2.93
2018-12-31T06:20:24.384Z,5.50
2018-12-31T06:25:25.488Z,5.27
2018-12-31T06:30:26.562Z,4.20
2018-12-31T06:35:27.679Z,5.23
2018-12-31T06:40:28.880Z,4.83
2018-12-31T06:45:29.995Z,4.70
2018-12-31T06:50:31.104Z,4.10
2018-12-31T06:55:32.200Z,7.00
2018-12-31T07:00:33.308Z,5.10
2018-12-31T07:05:34.425Z,6.83
2018-12-31T07:10:35.539Z,4.97
2018-12-31T07:15:36.638Z,4.57
2018-12-31T07:20:37.762Z,4.13
2018-12-31T07:25:38.864Z,4.30
2018-12-31T07:30:39.969Z,4.90
2018-12-31T07:35:41.066Z,5.20
2018-12-31T07:40:42.176Z,6.33
2018-12-31T07:45:43.300Z,5.93
2018-12-31T07:50:44.395Z,5.17
2018-12-31T07:55:45.492Z,5.23
2018-12-31T08:00:46.594Z,5.47
2018-12-31T08:05:47.695Z,6.03
2018-12-31T08:10:48.819Z,7.70
2018-12-31T08:15:49.902Z,6.63
2018-12-31T08:20:51.010Z,8.88
2018-12-31T08:25:52.097Z,7.13
2018-12-31T08:30:53.199Z,6.30
2018-12-31T08:35:54.289Z,7.30
2018-12-31T08:40:55.487Z,5.33
2018-12-31T08:45:56.703Z,6.37
2018-12-31T08:50:57.806Z,6.70
2018-12-31T08:55:58.893Z,6.27
2018-12-31T09:00:59.985Z,7.13
2018-12-31T09:06:01.190Z,7.30
2018-12-31T09:11:02.282Z,4.93
2018-12-31T09:16:03.388Z,6.23
2018-12-31T09:21:04.481Z,5.27
2018-12-31T09:26:05.570Z,4.50
2018-12-31T09:31:07.811Z,6.80
2018-12-31T09:36:09.179Z,4.73
2018-12-31T09:41:10.285Z,3.30
2018-12-31T09:46:11.391Z,3.90
2018-12-31T09:51:12.521Z,4.10
2018-12-31T09:56:13.701Z,4.10
2018-12-31T10:01:14.795Z,2.70
2018-12-31T10:06:15.895Z,3.17
2018-12-31T10:11:17.418Z,3.17
2018-12-31T10:16:18.513Z,3.00
2018-12-31T10:21:19.613Z,5.10
2018-12-31T10:26:20.703Z,3.60
2018-12-31T10:31:21.995Z,3.43
2018-12-31T10:36:23.152Z,4.93
2018-12-31T10:41:24.252Z,3.27
2018-12-31T10:46:25.370Z,4.30
2018-12-31T10:51:26.469Z,3.27
2018-12-31T10:56:27.558Z,7.97
2018-12-31T11:01:28.691Z,6.20
2018-12-31T11:06:29.791Z,9.57
2018-12-31T11:11:30.917Z,6.03
2018-12-31T11:16:32.861Z,6.67
2018-12-31T11:21:34.001Z,5.30
2018-12-31T11:26:35.110Z,5.00
2018-12-31T11:31:36.207Z,4.73
2018-12-31T11:36:37.318Z,6.13
2018-12-31T11:41:38.539Z,4.53
2018-12-31T11:46:39.865Z,4.57
2018-12-31T11:51:40.984Z,6.83
2018-12-31T11:56:42.133Z,4.23
2018-12-31T12:01:43.284Z,3.77
2018-12-31T12:06:44.396Z,4.50
2018-12-31T12:11:45.522Z,4.13
2018-12-31T12:16:46.659Z,10.87
2018-12-31T12:21:48.281Z,6.63
2018-12-31T12:26:49.396Z,5.33
2018-12-31T12:31:50.827Z,5.20
2018-12-31T12:36:52.034Z,5.23
2018-12-31T12:41:53.205Z,4.43
2018-12-31T12:46:54.424Z,7.13
2018-12-31T12:51:55.570Z,6.77
2018-12-31T12:56:56.670Z,7.07
2018-12-31T13:01:57.832Z,6.57
2018-12-31T13:06:59.091Z,6.50
2018-12-31T13:12:00.210Z,5.43
2018-12-31T13:17:01.410Z,4.87
2018-12-31T13:22:02.741Z,5.13
2018-12-31T13:27:04.236Z,10.40
2018-12-31T13:32:05.356Z,9.97
2018-12-31T13:37:06.450Z,11.57
2018-12-31T13:42:07.571Z,8.67
2018-12-31T13:47:11.516Z,7.33
2018-12-31T13:52:12.614Z,7.03
2018-12-31T13:57:14.151Z,8.83
2018-12-31T14:02:15.351Z,8.53
2018-12-31T14:07:16.461Z,7.00
2018-12-31T14:12:17.730Z,6.40
2018-12-31T14:17:18.821Z,6.90
2018-12-31T14:22:20.355Z,5.77
2018-12-31T14:27:21.602Z,11.83
2018-12-31T14:32:22.817Z,6.73
2018-12-31T14:37:24.013Z,7.40
2018-12-31T14:42:25.109Z,6.20
2018-12-31T14:47:26.259Z,5.13
2018-12-31T14:52:27.458Z,7.17
2018-12-31T14:57:28.591Z,7.50
2018-12-31T15:02:29.812Z,8.37
2018-12-31T15:07:31.556Z,8.03
2018-12-31T15:12:32.675Z,8.30
2018-12-31T15:17:33.805Z,8.33
2018-12-31T15:22:34.899Z,7.87
2018-12-31T15:27:36.144Z,7.07
2018-12-31T15:32:37.263Z,9.03
2018-12-31T15:37:38.476Z,7.77
2018-12-31T15:42:39.682Z,9.40
2018-12-31T15:47:40.814Z,11.70
2018-12-31T15:52:42.364Z,8.17
2018-12-31T15:57:43.480Z,10.30
2018-12-31T16:02:44.588Z,10.03
2018-12-31T16:07:46.212Z,11.67
2018-12-31T16:12:47.503Z,16.77
2018-12-31T16:17:48.733Z,28.33
2018-12-31T16:22:49.939Z,27.20
2018-12-31T16:27:51.136Z,19.20
2018-12-31T16:32:52.244Z,22.10
2018-12-31T16:37:53.556Z,18.73
2018-12-31T16:42:54.795Z,20.93
2018-12-31T16:47:55.915Z,18.60
2018-12-31T16:52:57.082Z,22.47
2018-12-31T16:57:58.277Z,23.10
2018-12-31T17:02:59.414Z,13.20
2018-12-31T17:08:00.524Z,15.67
2018-12-31T17:13:01.659Z,17.00
2018-12-31T17:18:02.981Z,17.20
2018-12-31T17:23:04.337Z,15.87
2018-12-31T17:28:05.620Z,14.83
2018-12-31T17:33:06.796Z,16.70
2018-12-31T17:38:07.903Z,23.90
2018-12-31T17:43:09.007Z,22.07
2018-12-31T17:48:10.156Z,21.03
2018-12-31T17:53:11.292Z,54.65
2018-12-31T17:58:12.806Z,26.37
2018-12-31T18:03:13.907Z,22.17
2018-12-31T18:08:15.035Z,24.53
2018-12-31T18:13:16.432Z,22.93
2018-12-31T18:18:17.582Z,20.77
2018-12-31T18:23:18.684Z,19.83
2018-12-31T18:28:19.804Z,21.50
2018-12-31T18:33:20.900Z,20.50
2018-12-31T18:38:22.096Z,15.60
2018-12-31T18:43:23.693Z,17.60
2018-12-31T18:48:25.020Z,21.40
2018-12-31T18:53:26.148Z,22.77
2018-12-31T18:58:27.247Z,20.80
2018-12-31T19:03:28.416Z,21.70
2018-12-31T19:08:29.536Z,36.53
2018-12-31T19:13:30.630Z,33.20
2018-12-31T19:18:31.729Z,34.10
2018-12-31T19:23:32.831Z,28.67
2018-12-31T19:28:33.930Z,28.20
2018-12-31T19:33:35.126Z,32.37
2018-12-31T19:38:36.519Z,35.03
2018-12-31T19:43:37.607Z,37.70
2018-12-31T19:48:39.434Z,31.87
2018-12-31T19:53:40.544Z,32.20
2018-12-31T19:58:41.649Z,32.40
2018-12-31T20:03:43.154Z,34.20
2018-12-31T20:08:44.274Z,28.53
2018-12-31T20:13:45.373Z,48.63
2018-12-31T20:18:46.471Z,32.17
2018-12-31T20:23:47.564Z,17.73
2018-12-31T20:28:48.800Z,16.50
2018-12-31T20:33:49.927Z,20.60
2018-12-31T20:38:52.655Z,16.70
2018-12-31T20:43:53.750Z,14.33
2018-12-31T20:48:54.850Z,14.83
2018-12-31T20:53:56.047Z,13.03
2018-12-31T20:58:57.142Z,12.43
2018-12-31T21:03:58.636Z,11.50
2018-12-31T21:08:59.754Z,13.47
2018-12-31T21:14:00.967Z,13.83
2018-12-31T21:19:02.064Z,28.60
2018-12-31T21:24:03.151Z,34.43
2018-12-31T21:29:04.259Z,35.27
2018-12-31T21:34:05.363Z,30.50
2018-12-31T21:39:06.854Z,17.67
2018-12-31T21:44:07.951Z,16.83
2018-12-31T21:49:09.071Z,16.17
2018-12-31T21:54:10.173Z,13.63
2018-12-31T21:59:11.274Z,13.73
2018-12-31T22:04:12.365Z,14.00
2018-12-31T22:09:14.799Z,12.93
2018-12-31T22:14:16.405Z,28.07
2018-12-31T22:19:17.591Z,23.73
2018-12-31T22:24:18.696Z,35.67
2018-12-31T22:29:19.795Z,27.73
2018-12-31T22:34:20.892Z,28.90
2018-12-31T22:39:21.965Z,27.77
2018-12-31T22:44:23.065Z,19.47
2018-12-31T22:49:24.563Z,17.53
2018-12-31T22:54:25.660Z,25.13
2018-12-31T22:59:26.748Z,28.20
2018-12-31T23:04:27.961Z,112.17
2018-12-31T23:09:29.081Z,281.50
2018-12-31T23:14:30.176Z,419.13
2018-12-31T23:19:31.270Z,467.53
2018-12-31T23:24:32.373Z,240.97
2018-12-31T23:29:33.462Z,288.87
2018-12-31T23:34:34.903Z,99.20
2018-12-31T23:39:36.096Z,36.13
2018-12-31T23:44:37.290Z,52.70
2018-12-31T23:49:38.413Z,58.53
2018-12-31T23:54:39.511Z,70.13
2018-12-31T23:59:40.636Z,126.77
